createdAt,value
2022-12-04T00:00:08.011Z,30.60
2022-12-04T00:01:07.969Z,29.90
2022-12-04T00:02:07.931Z,31.40
2022-12-04T00:03:07.921Z,31.50
2022-12-04T00:04:07.830Z,30.70
2022-12-04T00:05:07.858Z,30.70
2022-12-04T00:06:07.742Z,30.80
2022-12-04T00:07:07.692Z,29.60
2022-12-04T00:08:07.729Z,30.40
2022-12-04T00:09:07.602Z,30.30
2022-12-04T00:10:07.554Z,31.90
2022-12-04T00:11:07.511Z,31.20
2022-12-04T00:12:07.482Z,29.30
2022-12-04T00:13:07.425Z,31.90
2022-12-04T00:14:07.668Z,33.40
2022-12-04T00:16:07.351Z,31.50
2022-12-04T00:17:07.234Z,31.60
2022-12-04T00:18:07.199Z,31.20
2022-12-04T00:19:07.141Z,31.00
2022-12-04T00:20:07.104Z,31.70
2022-12-04T00:21:07.802Z,31.10
2022-12-04T00:22:07.114Z,31.90
2022-12-04T00:23:06.976Z,30.60
2022-12-04T00:24:07.068Z,31.70
2022-12-04T00:25:06.881Z,31.90
2022-12-04T00:26:06.827Z,32.70
2022-12-04T00:27:06.775Z,33.00
2022-12-04T00:28:06.729Z,31.30
2022-12-04T00:29:06.699Z,29.90
2022-12-04T00:30:06.640Z,30.20
2022-12-04T00:31:06.718Z,32.70
2022-12-04T00:32:06.676Z,32.10
2022-12-04T00:33:06.504Z,34.30
2022-12-04T00:34:08.340Z,33.00
2022-12-04T00:35:06.411Z,31.30
2022-12-04T00:36:06.362Z,32.70
2022-12-04T00:37:06.640Z,33.00
2022-12-04T00:38:07.230Z,31.70
2022-12-04T00:39:06.227Z,32.30
2022-12-04T00:40:06.192Z,33.60
2022-12-04T00:41:06.138Z,32.60
2022-12-04T00:42:06.088Z,32.70
2022-12-04T00:43:06.060Z,32.20
2022-12-04T00:44:06.002Z,30.20
2022-12-04T00:45:05.958Z,32.70
2022-12-04T00:46:06.010Z,31.10
2022-12-04T00:47:05.861Z,31.30
2022-12-04T00:48:05.813Z,32.00
2022-12-04T00:49:05.784Z,33.10
2022-12-04T00:50:05.723Z,31.90
2022-12-04T00:51:05.683Z,31.90
2022-12-04T00:52:05.631Z,31.80
2022-12-04T00:53:05.589Z,32.30
2022-12-04T00:54:05.539Z,33.40
2022-12-04T00:55:05.509Z,32.40
2022-12-04T00:56:05.448Z,32.90
2022-12-04T00:57:05.406Z,32.80
2022-12-04T00:58:05.360Z,31.60
2022-12-04T00:59:05.322Z,33.00
2022-12-04T01:00:05.281Z,34.50
2022-12-04T01:01:05.290Z,33.00
2022-12-04T01:02:05.177Z,33.60
2022-12-04T01:03:05.288Z,30.30
2022-12-04T01:04:05.087Z,32.30
2022-12-04T01:05:05.043Z,33.20
2022-12-04T01:06:05.001Z,32.20
2022-12-04T01:07:05.458Z,34.70
2022-12-04T01:08:04.915Z,32.40
2022-12-04T01:09:04.863Z,31.20
2022-12-04T01:10:04.807Z,33.40
2022-12-04T01:11:04.772Z,33.10
2022-12-04T01:12:04.736Z,32.70
2022-12-04T01:13:04.673Z,32.00
2022-12-04T01:14:04.701Z,32.00
2022-12-04T01:15:04.583Z,32.90
2022-12-04T01:16:04.614Z,32.20
2022-12-04T01:17:04.492Z,32.70
2022-12-04T01:18:04.455Z,31.40
2022-12-04T01:19:04.413Z,32.30
2022-12-04T01:20:04.522Z,33.70
2022-12-04T01:21:04.319Z,31.80
2022-12-04T01:22:04.267Z,32.70
2022-12-04T01:23:04.219Z,31.00
2022-12-04T01:24:04.171Z,32.80
2022-12-04T01:25:04.136Z,33.60
2022-12-04T01:26:04.078Z,32.10
2022-12-04T01:27:04.035Z,32.30
2022-12-04T01:28:03.984Z,31.70
2022-12-04T01:29:03.941Z,30.90
2022-12-04T01:30:03.892Z,32.80
2022-12-04T01:31:03.863Z,31.60
2022-12-04T01:32:03.878Z,32.90
2022-12-04T01:33:03.759Z,32.50
2022-12-04T01:34:03.712Z,31.90
2022-12-04T01:35:03.667Z,33.00
2022-12-04T01:36:03.620Z,32.90
2022-12-04T01:37:03.590Z,31.70
2022-12-04T01:38:03.540Z,30.90
2022-12-04T01:39:03.486Z,31.80
2022-12-04T01:40:03.435Z,30.70
2022-12-04T01:41:03.393Z,30.30
2022-12-04T01:42:03.358Z,31.80
2022-12-04T01:43:03.308Z,30.30
2022-12-04T01:44:03.255Z,31.90
2022-12-04T01:45:03.210Z,32.30
2022-12-04T01:46:10.854Z,33.30
2022-12-04T01:47:03.128Z,31.50
2022-12-04T01:48:03.069Z,32.10
2022-12-04T01:49:03.038Z,32.70
2022-12-04T01:50:02.981Z,32.40
2022-12-04T01:51:02.934Z,31.70
2022-12-04T01:52:02.889Z,33.20
2022-12-04T01:53:02.849Z,29.00
2022-12-04T01:54:02.794Z,30.30
2022-12-04T01:55:02.765Z,31.50
2022-12-04T01:56:02.713Z,33.10
2022-12-04T01:57:02.687Z,31.70
2022-12-04T01:58:02.616Z,32.60
2022-12-04T01:59:02.567Z,31.40
2022-12-04T02:00:02.529Z,32.90
2022-12-04T02:01:07.889Z,31.00
2022-12-04T02:02:02.565Z,32.30
2022-12-04T02:03:02.426Z,31.00
2022-12-04T02:04:02.350Z,32.50
2022-12-04T02:05:02.292Z,29.90
2022-12-04T02:06:02.249Z,31.90
2022-12-04T02:07:02.204Z,31.10
2022-12-04T02:08:02.224Z,31.30
2022-12-04T02:09:02.111Z,33.60
2022-12-04T02:10:02.074Z,34.70
2022-12-04T02:11:02.016Z,32.40
2022-12-04T02:12:01.991Z,30.50
2022-12-04T02:13:01.925Z,33.60
2022-12-04T02:14:01.945Z,30.90
2022-12-04T02:15:01.833Z,33.20
2022-12-04T02:16:01.792Z,32.00
2022-12-04T02:17:01.780Z,32.70
2022-12-04T02:18:01.707Z,33.00
2022-12-04T02:19:01.655Z,31.30
2022-12-04T02:20:01.609Z,32.30
2022-12-04T02:21:01.559Z,35.00
2022-12-04T02:22:01.515Z,32.80
2022-12-04T02:23:01.495Z,32.30
2022-12-04T02:24:01.424Z,32.40
2022-12-04T02:25:01.376Z,32.30
2022-12-04T02:26:01.337Z,30.30
2022-12-04T02:27:01.297Z,31.70
2022-12-04T02:28:01.247Z,34.70
2022-12-04T02:29:01.202Z,32.50
2022-12-04T02:30:01.151Z,31.30
2022-12-04T02:31:01.220Z,32.40
2022-12-04T02:32:01.059Z,32.60
2022-12-04T02:33:01.013Z,31.80
2022-12-04T02:34:00.978Z,32.30
2022-12-04T02:35:00.919Z,32.30
2022-12-04T02:36:00.875Z,33.90
2022-12-04T02:37:00.829Z,33.90
2022-12-04T02:38:00.782Z,34.50
2022-12-04T02:39:00.733Z,33.70
2022-12-04T02:40:00.706Z,33.50
2022-12-04T02:41:00.646Z,33.40
2022-12-04T02:42:00.599Z,33.50
2022-12-04T02:43:00.553Z,31.90
2022-12-04T02:44:00.512Z,32.80
2022-12-04T02:45:00.460Z,32.30
2022-12-04T02:46:00.569Z,32.80
2022-12-04T02:47:00.368Z,33.10
2022-12-04T02:48:00.327Z,33.10
2022-12-04T02:49:00.278Z,34.20
2022-12-04T02:50:00.283Z,32.00
2022-12-04T02:51:00.185Z,32.90
2022-12-04T02:52:00.163Z,31.80
2022-12-04T02:53:00.124Z,33.10
2022-12-04T02:54:00.061Z,33.10
2022-12-04T02:55:04.036Z,33.00
2022-12-04T02:55:59.960Z,31.90
2022-12-04T02:56:59.911Z,33.90
2022-12-04T02:57:59.876Z,31.70
2022-12-04T02:58:59.819Z,33.00
2022-12-04T02:59:59.778Z,34.10
2022-12-04T03:00:59.770Z,37.10
2022-12-04T03:01:59.695Z,31.90
2022-12-04T03:02:59.713Z,31.60
2022-12-04T03:03:59.593Z,32.80
2022-12-04T03:04:59.541Z,32.60
2022-12-04T03:05:59.508Z,32.50
2022-12-04T03:06:59.451Z,32.90
2022-12-04T03:07:59.434Z,33.50
2022-12-04T03:08:59.372Z,31.50
2022-12-04T03:09:59.319Z,32.10
2022-12-04T03:10:59.267Z,31.40
2022-12-04T03:11:59.226Z,34.40
2022-12-04T03:12:59.176Z,32.20
2022-12-04T03:13:59.133Z,34.60
2022-12-04T03:14:59.099Z,32.70
2022-12-04T03:15:59.040Z,32.60
2022-12-04T03:16:59.076Z,35.00
2022-12-04T03:17:58.953Z,32.20
2022-12-04T03:18:58.904Z,31.40
2022-12-04T03:19:58.858Z,35.40
2022-12-04T03:20:58.821Z,31.90
2022-12-04T03:21:58.769Z,32.00
2022-12-04T03:22:58.718Z,33.00
2022-12-04T03:23:58.676Z,32.80
2022-12-04T03:24:58.626Z,33.40
2022-12-04T03:25:58.590Z,33.00
2022-12-04T03:26:58.534Z,33.20
2022-12-04T03:27:58.488Z,33.80
2022-12-04T03:28:58.444Z,33.70
2022-12-04T03:29:58.477Z,33.20
2022-12-04T03:30:58.416Z,31.90
2022-12-04T03:31:58.326Z,33.10
2022-12-04T03:32:58.261Z,35.80
2022-12-04T03:33:58.215Z,33.20
2022-12-04T03:34:58.166Z,32.20
2022-12-04T03:35:58.125Z,34.50
2022-12-04T03:36:58.084Z,32.70
2022-12-04T03:37:58.035Z,34.70
2022-12-04T03:38:57.983Z,33.20
2022-12-04T03:39:58.279Z,32.50
2022-12-04T03:40:57.894Z,33.60
2022-12-04T03:41:57.863Z,33.60
2022-12-04T03:42:57.802Z,32.50
2022-12-04T03:43:57.757Z,34.20
2022-12-04T03:44:57.707Z,31.10
2022-12-04T03:45:57.685Z,32.50
2022-12-04T03:46:57.618Z,30.70
2022-12-04T03:47:57.587Z,33.50
2022-12-04T03:48:57.525Z,33.20
2022-12-04T03:49:57.962Z,34.20
2022-12-04T03:50:57.436Z,31.10
2022-12-04T03:51:57.387Z,32.30
2022-12-04T03:52:57.356Z,33.70
2022-12-04T03:53:57.294Z,33.10
2022-12-04T03:54:57.245Z,32.50
2022-12-04T03:55:57.203Z,32.90
2022-12-04T03:56:57.162Z,32.90
2022-12-04T03:57:57.111Z,34.60
2022-12-04T03:58:57.076Z,32.60
2022-12-04T03:59:57.518Z,32.80
2022-12-04T04:00:56.993Z,36.90
2022-12-04T04:01:56.991Z,32.00
2022-12-04T04:02:56.920Z,33.40
2022-12-04T04:03:56.840Z,32.00
2022-12-04T04:04:56.796Z,34.30
2022-12-04T04:05:56.741Z,33.20
2022-12-04T04:06:56.691Z,33.00
2022-12-04T04:07:56.700Z,31.30
2022-12-04T04:08:56.602Z,31.60
2022-12-04T04:09:57.060Z,33.80
2022-12-04T04:10:56.532Z,33.40
2022-12-04T04:11:56.466Z,32.00
2022-12-04T04:12:56.417Z,34.50
2022-12-04T04:13:56.373Z,32.70
2022-12-04T04:14:56.324Z,33.30
2022-12-04T04:15:56.363Z,31.60
2022-12-04T04:16:56.251Z,32.80
2022-12-04T04:17:56.192Z,30.50
2022-12-04T04:18:56.139Z,32.00
2022-12-04T04:19:56.195Z,31.10
2022-12-04T04:20:56.048Z,32.30
2022-12-04T04:21:56.001Z,31.00
2022-12-04T04:22:56.388Z,33.10
2022-12-04T04:23:55.915Z,31.10
2022-12-04T04:24:55.865Z,33.50
2022-12-04T04:25:55.824Z,30.80
2022-12-04T04:26:55.769Z,33.30
2022-12-04T04:27:55.744Z,31.60
2022-12-04T04:28:55.679Z,31.50
2022-12-04T04:29:56.061Z,34.10
2022-12-04T04:30:55.629Z,30.20
2022-12-04T04:31:55.544Z,31.40
2022-12-04T04:32:55.495Z,32.20
2022-12-04T04:33:55.460Z,30.30
2022-12-04T04:34:55.401Z,31.00
2022-12-04T04:35:55.362Z,32.90
2022-12-04T04:36:55.318Z,29.90
2022-12-04T04:37:55.268Z,31.80
2022-12-04T04:38:55.228Z,33.40
2022-12-04T04:39:55.404Z,30.50
2022-12-04T04:40:55.243Z,31.60
2022-12-04T04:41:55.082Z,31.40
2022-12-04T04:42:55.029Z,31.50
2022-12-04T04:43:54.988Z,30.50
2022-12-04T04:44:54.936Z,31.40
2022-12-04T04:45:54.960Z,31.30
2022-12-04T04:46:54.899Z,29.70
2022-12-04T04:47:54.802Z,29.30
2022-12-04T04:48:54.753Z,30.40
2022-12-04T04:49:54.992Z,28.70
2022-12-04T04:50:54.662Z,30.00
2022-12-04T04:51:54.634Z,30.50
2022-12-04T04:52:54.571Z,29.10
2022-12-04T04:53:54.528Z,31.00
2022-12-04T04:54:54.479Z,29.70
2022-12-04T04:55:54.433Z,29.40
2022-12-04T04:56:54.385Z,30.60
2022-12-04T04:57:54.353Z,31.00
2022-12-04T04:58:54.296Z,29.10
2022-12-04T04:59:54.609Z,28.10
2022-12-04T05:00:54.203Z,29.50
2022-12-04T05:01:54.181Z,29.50
2022-12-04T05:02:54.208Z,30.00
2022-12-04T05:03:54.079Z,28.40
2022-12-04T05:04:54.025Z,28.70
2022-12-04T05:05:53.969Z,30.40
2022-12-04T05:06:53.921Z,28.50
2022-12-04T05:07:54.003Z,29.70
2022-12-04T05:08:53.831Z,30.80
2022-12-04T05:09:54.126Z,28.80
2022-12-04T05:10:53.736Z,28.30
2022-12-04T05:11:53.695Z,26.90
2022-12-04T05:12:53.644Z,26.90
2022-12-04T05:13:53.598Z,26.10
2022-12-04T05:14:53.564Z,26.60
2022-12-04T05:15:53.520Z,27.50
2022-12-04T05:16:53.458Z,27.30
2022-12-04T05:17:53.411Z,26.20
2022-12-04T05:18:53.365Z,25.90
2022-12-04T05:19:53.678Z,24.90
2022-12-04T05:20:53.281Z,27.20
2022-12-04T05:21:53.241Z,25.90
2022-12-04T05:22:53.181Z,25.70
2022-12-04T05:23:53.132Z,24.60
2022-12-04T05:24:53.086Z,25.00
2022-12-04T05:25:53.040Z,25.30
2022-12-04T05:26:53.021Z,26.00
2022-12-04T05:27:52.950Z,25.60
2022-12-04T05:28:52.912Z,25.40
2022-12-04T05:29:53.151Z,24.20
2022-12-04T05:30:52.834Z,24.20
2022-12-04T05:31:52.763Z,25.20
2022-12-04T05:32:52.724Z,23.80
2022-12-04T05:33:52.681Z,23.90
2022-12-04T05:34:52.636Z,24.20
2022-12-04T05:35:52.575Z,23.30
2022-12-04T05:36:52.526Z,23.40
2022-12-04T05:37:52.499Z,24.00
2022-12-04T05:38:52.431Z,23.60
2022-12-04T05:39:52.490Z,23.70
2022-12-04T05:40:52.341Z,23.40
2022-12-04T05:41:52.297Z,24.60
2022-12-04T05:42:52.244Z,24.20
2022-12-04T05:43:52.214Z,23.00
2022-12-04T05:44:52.168Z,24.30
2022-12-04T05:45:52.108Z,23.10
2022-12-04T05:46:52.088Z,23.00
2022-12-04T05:47:52.017Z,23.70
2022-12-04T05:48:51.964Z,23.70
2022-12-04T05:49:51.917Z,22.80
2022-12-04T05:50:51.894Z,24.00
2022-12-04T05:51:51.828Z,24.20
2022-12-04T05:52:51.778Z,24.10
2022-12-04T05:53:51.730Z,24.90
2022-12-04T05:54:51.683Z,24.90
2022-12-04T05:55:51.640Z,25.00
2022-12-04T05:56:51.603Z,25.40
2022-12-04T05:57:51.543Z,25.00
2022-12-04T05:58:51.495Z,25.70
2022-12-04T05:59:51.454Z,26.00
2022-12-04T06:00:51.401Z,26.10
2022-12-04T06:01:51.432Z,28.00
2022-12-04T06:02:51.348Z,28.20
2022-12-04T06:03:51.263Z,25.50
2022-12-04T06:04:51.216Z,25.70
2022-12-04T06:05:51.168Z,26.50
2022-12-04T06:06:51.118Z,28.10
2022-12-04T06:07:51.132Z,26.20
2022-12-04T06:08:51.030Z,27.30
2022-12-04T06:09:50.981Z,24.80
2022-12-04T06:10:50.932Z,25.90
2022-12-04T06:11:50.885Z,26.00
2022-12-04T06:12:50.838Z,27.40
2022-12-04T06:13:50.806Z,27.20
2022-12-04T06:14:50.744Z,25.20
2022-12-04T06:15:50.703Z,24.20
2022-12-04T06:16:50.752Z,27.20
2022-12-04T06:17:50.606Z,25.50
2022-12-04T06:18:50.554Z,26.60
2022-12-04T06:19:50.557Z,27.40
2022-12-04T06:20:50.547Z,26.10
2022-12-04T06:21:50.412Z,28.10
2022-12-04T06:22:50.371Z,25.20
2022-12-04T06:23:50.322Z,24.50
2022-12-04T06:24:50.280Z,24.80
2022-12-04T06:25:50.235Z,25.00
2022-12-04T06:27:25.566Z,23.30
2022-12-04T06:27:50.133Z,25.70
2022-12-04T06:28:50.086Z,23.40
2022-12-04T06:29:50.045Z,25.20
2022-12-04T06:30:49.992Z,24.40
2022-12-04T06:31:50.061Z,25.70
2022-12-04T06:32:49.901Z,24.40
2022-12-04T06:33:49.846Z,26.20
2022-12-04T06:34:49.809Z,23.70
2022-12-04T06:35:49.758Z,23.90
2022-12-04T06:36:49.724Z,23.20
2022-12-04T06:37:49.661Z,25.30
2022-12-04T06:38:49.617Z,23.30
2022-12-04T06:39:49.571Z,22.30
2022-12-04T06:40:49.527Z,22.10
2022-12-04T06:41:49.501Z,22.00
2022-12-04T06:42:49.435Z,22.10
2022-12-04T06:43:49.380Z,21.60
2022-12-04T06:44:49.337Z,21.70
2022-12-04T06:45:49.390Z,22.40
2022-12-04T06:46:50.168Z,21.80
2022-12-04T06:47:49.194Z,22.30
2022-12-04T06:48:49.165Z,21.90
2022-12-04T06:49:49.098Z,21.50
2022-12-04T06:50:49.054Z,21.40
2022-12-04T06:51:49.015Z,20.30
2022-12-04T06:52:48.966Z,20.30
2022-12-04T06:53:48.921Z,20.40
2022-12-04T06:54:48.866Z,20.20
2022-12-04T06:55:48.846Z,20.10
2022-12-04T06:56:48.783Z,20.60
2022-12-04T06:57:48.720Z,19.50
2022-12-04T06:58:49.398Z,20.50
2022-12-04T06:59:48.632Z,20.20
2022-12-04T07:00:48.604Z,19.20
2022-12-04T07:01:48.630Z,17.70
2022-12-04T07:02:48.541Z,17.80
2022-12-04T07:03:51.593Z,17.70
2022-12-04T07:04:48.404Z,18.10
2022-12-04T07:05:48.353Z,17.90
2022-12-04T07:06:48.314Z,17.20
2022-12-04T07:07:48.331Z,17.30
2022-12-04T07:08:48.212Z,18.00
2022-12-04T07:09:48.169Z,16.50
2022-12-04T07:10:48.141Z,15.70
2022-12-04T07:11:48.085Z,15.10
2022-12-04T07:12:48.031Z,16.20
2022-12-04T07:13:47.982Z,16.90
2022-12-04T07:14:48.009Z,17.50
2022-12-04T07:15:47.919Z,14.10
2022-12-04T07:16:47.893Z,13.90
2022-12-04T07:17:47.813Z,15.30
2022-12-04T07:18:47.753Z,14.00
2022-12-04T07:19:47.972Z,15.20
2022-12-04T07:20:47.661Z,15.50
2022-12-04T07:21:47.612Z,15.50
2022-12-04T07:22:47.563Z,14.60
2022-12-04T07:23:47.528Z,13.30
2022-12-04T07:24:47.481Z,13.70
2022-12-04T07:25:47.421Z,13.40
2022-12-04T07:26:47.374Z,12.50
2022-12-04T07:27:47.333Z,13.00
2022-12-04T07:28:47.298Z,12.60
2022-12-04T07:29:47.247Z,13.20
2022-12-04T07:30:47.212Z,13.30
2022-12-04T07:31:47.228Z,12.60
2022-12-04T07:32:47.104Z,14.40
2022-12-04T07:33:47.053Z,14.60
2022-12-04T07:34:47.009Z,13.90
2022-12-04T07:35:46.961Z,14.70
2022-12-04T07:36:46.929Z,14.20
2022-12-04T07:37:46.876Z,13.80
2022-12-04T07:38:46.827Z,14.00
2022-12-04T07:39:46.776Z,13.20
2022-12-04T07:40:46.732Z,14.30
2022-12-04T07:41:46.682Z,13.90
2022-12-04T07:42:46.660Z,13.80
2022-12-04T07:43:46.593Z,13.70
2022-12-04T07:44:46.562Z,14.10
2022-12-04T07:45:46.500Z,13.80
2022-12-04T07:46:46.455Z,13.70
2022-12-04T07:47:46.412Z,13.20
2022-12-04T07:48:46.371Z,13.20
2022-12-04T07:49:46.312Z,13.40
2022-12-04T07:50:46.294Z,13.30
2022-12-04T07:51:46.225Z,12.80
2022-12-04T07:52:46.181Z,13.60
2022-12-04T07:53:46.127Z,13.70
2022-12-04T07:54:46.084Z,57.90
2022-12-04T07:55:46.037Z,63.90
2022-12-04T07:56:46.004Z,14.80
2022-12-04T07:57:45.947Z,13.40
2022-12-04T07:58:45.902Z,14.20
2022-12-04T07:59:45.855Z,13.40
2022-12-04T08:00:45.810Z,13.00
2022-12-04T08:01:45.845Z,12.60
2022-12-04T08:02:45.719Z,13.00
2022-12-04T08:03:48.547Z,12.10
2022-12-04T08:04:45.734Z,12.40
2022-12-04T08:05:45.578Z,13.70
2022-12-04T08:06:45.536Z,12.90
2022-12-04T08:07:45.563Z,12.40
2022-12-04T08:08:45.440Z,12.70
2022-12-04T08:09:45.393Z,12.50
2022-12-04T08:10:45.362Z,13.30
2022-12-04T08:11:45.301Z,12.90
2022-12-04T08:12:45.265Z,12.50
2022-12-04T08:13:45.227Z,12.50
2022-12-04T08:14:45.163Z,12.50
2022-12-04T08:15:45.118Z,13.20
2022-12-04T08:16:48.335Z,14.10
2022-12-04T08:17:45.029Z,14.60
2022-12-04T08:18:53.945Z,12.80
2022-12-04T08:19:44.934Z,12.80
2022-12-04T08:20:44.892Z,12.50
2022-12-04T08:21:44.844Z,12.70
2022-12-04T08:22:44.799Z,12.90
2022-12-04T08:23:44.752Z,13.10
2022-12-04T08:24:44.717Z,13.10
2022-12-04T08:25:44.658Z,12.70
2022-12-04T08:26:44.615Z,12.60
2022-12-04T08:27:47.330Z,12.00
2022-12-04T08:28:44.527Z,12.20
2022-12-04T08:29:44.475Z,14.00
2022-12-04T08:30:44.533Z,29.80
2022-12-04T08:31:44.387Z,24.40
2022-12-04T08:32:44.341Z,12.80
2022-12-04T08:33:44.293Z,12.80
2022-12-04T08:34:44.251Z,12.00
2022-12-04T08:35:44.202Z,11.20
2022-12-04T08:36:44.170Z,11.70
2022-12-04T08:37:44.111Z,11.80
2022-12-04T08:38:44.081Z,11.40
2022-12-04T08:39:44.021Z,11.30
2022-12-04T08:40:43.974Z,11.10
2022-12-04T08:41:43.948Z,11.10
2022-12-04T08:42:43.889Z,10.80
2022-12-04T08:43:43.836Z,11.60
2022-12-04T08:44:43.791Z,11.70
2022-12-04T08:45:43.773Z,11.50
2022-12-04T08:46:43.771Z,11.80
2022-12-04T08:47:45.832Z,12.20
2022-12-04T08:48:43.611Z,11.00
2022-12-04T08:49:43.559Z,11.10
2022-12-04T08:50:43.531Z,12.20
2022-12-04T08:51:43.470Z,12.00
2022-12-04T08:52:43.427Z,11.30
2022-12-04T08:53:43.376Z,10.30
2022-12-04T08:54:43.334Z,10.50
2022-12-04T08:55:43.286Z,11.00
2022-12-04T08:56:43.266Z,10.60
2022-12-04T08:57:43.195Z,10.20
2022-12-04T08:58:43.155Z,11.10
2022-12-04T08:59:43.102Z,10.20
2022-12-04T09:00:43.062Z,10.60
2022-12-04T09:01:43.091Z,10.40
2022-12-04T09:02:42.979Z,10.30
2022-12-04T09:03:42.919Z,11.10
2022-12-04T09:04:42.913Z,10.60
2022-12-04T09:05:42.850Z,11.00
2022-12-04T09:06:42.783Z,11.60
2022-12-04T09:07:42.829Z,11.00
2022-12-04T09:08:42.705Z,10.50
2022-12-04T09:09:48.057Z,11.00
2022-12-04T09:10:42.602Z,10.70
2022-12-04T09:11:42.555Z,10.70
2022-12-04T09:12:42.509Z,10.60
2022-12-04T09:13:42.463Z,10.80
2022-12-04T09:14:42.456Z,11.20
2022-12-04T09:15:42.384Z,11.40
2022-12-04T09:16:42.329Z,11.70
2022-12-04T09:17:42.278Z,10.90
2022-12-04T09:18:42.234Z,11.50
2022-12-04T09:19:42.190Z,11.20
2022-12-04T09:20:42.155Z,11.20
2022-12-04T09:21:42.099Z,11.60
2022-12-04T09:23:02.865Z,11.30
2022-12-04T09:23:42.005Z,11.30
2022-12-04T09:24:41.963Z,11.30
2022-12-04T09:25:41.913Z,11.50
2022-12-04T09:26:41.879Z,11.30
2022-12-04T09:27:41.821Z,11.50
2022-12-04T09:28:41.781Z,10.90
2022-12-04T09:29:41.729Z,11.20
2022-12-04T09:30:41.726Z,11.90
2022-12-04T09:31:41.719Z,11.00
2022-12-04T09:32:41.615Z,11.20
2022-12-04T09:33:41.558Z,11.50
2022-12-04T09:34:41.505Z,11.80
2022-12-04T09:35:41.456Z,11.50
2022-12-04T09:36:41.420Z,11.20
2022-12-04T09:37:41.366Z,11.50
2022-12-04T09:38:41.326Z,11.40
2022-12-04T09:39:41.287Z,11.40
2022-12-04T09:40:41.237Z,11.60
2022-12-04T09:41:41.186Z,11.60
2022-12-04T09:42:41.141Z,11.20
2022-12-04T09:43:41.092Z,11.80
2022-12-04T09:44:41.052Z,11.40
2022-12-04T09:45:41.012Z,10.80
2022-12-04T09:46:41.090Z,11.10
2022-12-04T09:47:40.912Z,11.60
2022-12-04T09:48:40.869Z,11.30
2022-12-04T09:49:40.819Z,11.00
2022-12-04T09:50:40.792Z,11.30
2022-12-04T09:51:40.728Z,10.70
2022-12-04T09:52:40.684Z,10.90
2022-12-04T09:53:40.639Z,11.00
2022-12-04T09:54:40.595Z,11.10
2022-12-04T09:55:40.560Z,10.70
2022-12-04T09:56:40.502Z,10.60
2022-12-04T09:57:40.454Z,10.90
2022-12-04T09:58:40.415Z,10.80
2022-12-04T09:59:40.364Z,10.70
2022-12-04T10:00:40.334Z,10.70
2022-12-04T10:01:40.274Z,10.60
2022-12-04T10:02:40.441Z,11.00
2022-12-04T10:03:40.346Z,11.00
2022-12-04T10:04:40.143Z,10.50
2022-12-04T10:05:40.121Z,11.00
2022-12-04T10:06:40.050Z,11.10
2022-12-04T10:07:40.042Z,11.20
2022-12-04T10:08:39.957Z,11.10
2022-12-04T10:09:39.918Z,11.40
2022-12-04T10:10:39.865Z,10.60
2022-12-04T10:11:39.827Z,11.40
2022-12-04T10:12:39.775Z,11.60
2022-12-04T10:13:39.734Z,10.80
2022-12-04T10:14:39.686Z,10.80
2022-12-04T10:15:39.696Z,10.80
2022-12-04T10:16:39.645Z,11.40
2022-12-04T10:17:39.544Z,11.20
2022-12-04T10:18:39.499Z,11.80
2022-12-04T10:19:39.455Z,11.50
2022-12-04T10:20:39.412Z,11.50
2022-12-04T10:21:39.371Z,11.10
2022-12-04T10:22:39.329Z,12.40
2022-12-04T10:23:39.270Z,11.90
2022-12-04T10:24:39.229Z,11.30
2022-12-04T10:25:39.181Z,11.60
2022-12-04T10:26:39.140Z,11.30
2022-12-04T10:27:39.090Z,11.90
2022-12-04T10:28:39.058Z,11.40
2022-12-04T10:29:38.999Z,11.00
2022-12-04T10:30:38.955Z,11.50
2022-12-04T10:31:38.971Z,12.00
2022-12-04T10:32:38.869Z,11.70
2022-12-04T10:33:38.836Z,11.40
2022-12-04T10:34:42.588Z,11.20
2022-12-04T10:35:38.735Z,11.90
2022-12-04T10:36:38.683Z,12.00
2022-12-04T10:37:38.640Z,12.30
2022-12-04T10:38:38.590Z,11.30
2022-12-04T10:39:38.548Z,11.20
2022-12-04T10:40:38.512Z,11.80
2022-12-04T10:41:38.469Z,11.20
2022-12-04T10:42:38.415Z,11.10
2022-12-04T10:43:38.370Z,11.80
2022-12-04T10:44:38.321Z,11.70
2022-12-04T10:45:38.281Z,11.80
2022-12-04T10:46:41.882Z,12.30
2022-12-04T10:47:38.185Z,12.30
2022-12-04T10:48:38.139Z,11.80
2022-12-04T10:49:38.098Z,11.80
2022-12-04T10:50:38.048Z,11.50
2022-12-04T10:51:38.016Z,11.50
2022-12-04T10:52:37.956Z,11.50
2022-12-04T10:53:37.917Z,11.80
2022-12-04T10:54:37.869Z,11.90
2022-12-04T10:55:37.824Z,12.00
2022-12-04T10:56:37.776Z,12.10
2022-12-04T10:57:37.743Z,11.60
2022-12-04T10:58:37.694Z,12.10
2022-12-04T10:59:37.642Z,12.20
2022-12-04T11:00:37.596Z,11.60
2022-12-04T11:01:37.584Z,12.00
2022-12-04T11:02:37.608Z,12.40
2022-12-04T11:03:37.488Z,12.40
2022-12-04T11:04:37.414Z,11.90
2022-12-04T11:05:37.372Z,12.00
2022-12-04T11:06:37.323Z,12.10
2022-12-04T11:07:37.429Z,12.30
2022-12-04T11:08:37.235Z,12.70
2022-12-04T11:09:37.193Z,12.50
2022-12-04T11:10:37.149Z,12.40
2022-12-04T11:11:37.105Z,12.70
2022-12-04T11:12:37.065Z,12.30
2022-12-04T11:13:37.011Z,12.10
2022-12-04T11:14:36.965Z,12.20
2022-12-04T11:15:36.923Z,12.30
2022-12-04T11:16:36.961Z,13.20
2022-12-04T11:17:36.829Z,12.70
2022-12-04T11:18:36.793Z,12.30
2022-12-04T11:19:36.745Z,12.80
2022-12-04T11:20:36.694Z,12.70
2022-12-04T11:21:36.653Z,12.80
2022-12-04T11:22:36.609Z,12.70
2022-12-04T11:23:36.569Z,12.90
2022-12-04T11:24:36.525Z,12.10
2022-12-04T11:25:36.474Z,13.20
2022-12-04T11:26:36.425Z,12.80
2022-12-04T11:27:36.385Z,12.70
2022-12-04T11:28:43.529Z,13.20
2022-12-04T11:29:36.293Z,13.00
2022-12-04T11:30:36.256Z,12.10
2022-12-04T11:31:36.259Z,13.20
2022-12-04T11:32:36.157Z,13.10
2022-12-04T11:33:36.113Z,12.30
2022-12-04T11:34:36.068Z,13.30
2022-12-04T11:35:36.034Z,13.70
2022-12-04T11:36:35.990Z,13.30
2022-12-04T11:37:39.292Z,13.40
2022-12-04T11:38:35.886Z,13.60
2022-12-04T11:39:35.858Z,13.50
2022-12-04T11:40:35.797Z,13.60
2022-12-04T11:41:35.759Z,13.60
2022-12-04T11:42:35.723Z,14.00
2022-12-04T11:43:35.667Z,13.70
2022-12-04T11:44:35.623Z,13.50
2022-12-04T11:45:35.575Z,14.00
2022-12-04T11:46:35.601Z,13.50
2022-12-04T11:47:35.493Z,13.40
2022-12-04T11:48:35.448Z,13.20
2022-12-04T11:49:39.515Z,13.90
2022-12-04T11:50:35.347Z,13.30
2022-12-04T11:51:35.323Z,13.90
2022-12-04T11:52:35.264Z,12.90
2022-12-04T11:53:35.217Z,13.50
2022-12-04T11:54:35.168Z,13.50
2022-12-04T11:55:35.127Z,12.80
2022-12-04T11:56:35.080Z,13.50
2022-12-04T11:57:35.055Z,15.10
2022-12-04T11:58:35.001Z,53.50
2022-12-04T11:59:34.968Z,15.80
2022-12-04T12:00:34.900Z,18.90
2022-12-04T12:01:34.924Z,16.40
2022-12-04T12:02:34.975Z,14.30
2022-12-04T12:03:34.853Z,13.60
2022-12-04T12:04:34.719Z,16.70
2022-12-04T12:05:34.692Z,14.50
2022-12-04T12:06:34.631Z,15.40
2022-12-04T12:07:34.706Z,16.10
2022-12-04T12:08:34.545Z,14.10
2022-12-04T12:09:34.496Z,13.50
2022-12-04T12:10:34.452Z,14.20
2022-12-04T12:11:34.424Z,14.40
2022-12-04T12:12:34.364Z,13.80
2022-12-04T12:13:34.321Z,13.80
2022-12-04T12:14:34.274Z,14.50
2022-12-04T12:15:34.244Z,13.10
2022-12-04T12:16:34.221Z,13.80
2022-12-04T12:17:34.140Z,13.40
2022-12-04T12:18:34.094Z,13.80
2022-12-04T12:19:34.066Z,13.60
2022-12-04T12:20:34.006Z,13.70
2022-12-04T12:21:33.976Z,13.10
2022-12-04T12:22:33.913Z,14.20
2022-12-04T12:23:33.875Z,13.40
2022-12-04T12:24:33.824Z,13.60
2022-12-04T12:25:33.787Z,12.90
2022-12-04T12:26:33.735Z,13.70
2022-12-04T12:27:33.707Z,13.50
2022-12-04T12:28:33.649Z,13.50
2022-12-04T12:29:33.605Z,14.00
2022-12-04T12:30:33.558Z,13.30
2022-12-04T12:31:33.556Z,13.60
2022-12-04T12:32:33.465Z,12.90
2022-12-04T12:33:33.438Z,13.00
2022-12-04T12:34:33.377Z,13.30
2022-12-04T12:35:33.336Z,13.20
2022-12-04T12:36:33.286Z,13.90
2022-12-04T12:37:33.243Z,13.30
2022-12-04T12:38:33.197Z,13.00
2022-12-04T12:39:33.165Z,14.00
2022-12-04T12:40:33.107Z,13.40
2022-12-04T12:41:33.062Z,13.30
2022-12-04T12:42:33.015Z,13.40
2022-12-04T12:43:33.033Z,13.50
2022-12-04T12:44:32.943Z,13.30
2022-12-04T12:45:32.933Z,14.10
2022-12-04T12:46:32.882Z,13.60
2022-12-04T12:47:32.798Z,18.30
2022-12-04T12:48:32.747Z,24.80
2022-12-04T12:49:32.708Z,29.20
2022-12-04T12:50:32.672Z,22.10
2022-12-04T12:51:32.612Z,13.60
2022-12-04T12:52:32.567Z,13.50